Malé, Maldives

1:23 AM MVT op 26 februari 2017 (GMT +0500)
Male International | | Change Station

Hoogte 7 ft 4.20 °N, 73.53 °E | Updated 1 hour ago

Gedeeltelijk bewolkt
Gedeeltelijk bewolkt
82 °F
Voelt als 90 °F
N
6
Wind Variabel Wind van NO

Vandaag
Hoog -- | Laag -- °F
--% Kans op neerslag
Gisteren
Hoog -- | Laag -- °F
Precip. -- inches
Druk 29.86 inches
Zicht 5.6 mijlen
Wolken Gering 1800 ft
Licht bewolkt 28000 ft
Warmteindex 90 °F
Dauwpunt 75 °F
Vochtigheid 79%
Neerslag 0.00 inches
Dikte sneeuw Niet beschikbaar.
6:17 AM 6:19 PM
Afnemende halvemaan, 1% visible
METAR VRMM 251900Z 05005KT 9000 FEW018 SCT280 28/24 Q1011 NOSIG
Druk 29.86 inches
Zicht 5.6 mijlen
Wolken Gering 1800 ft
Licht bewolkt 28000 ft
Warmteindex 90 °F
Dauwpunt 75 °F
Vochtigheid 79%
Neerslag 0.00 inches
Dikte sneeuw Niet beschikbaar.
6:17 AM 6:19 PM
Afnemende halvemaan, 1% visible
METAR VRMM 251900Z 05005KT 9000 FEW018 SCT280 28/24 Q1011 NOSIG

Get Your Daily Forecast Email!

Thanks for signing up!

Be on the lookout for a verification email in your inbox.

You'll start receiving the daily forecast at 8 AM.

×

10-Day Weather Forecast

No radar image for this location.
×

Almanac

Astronomie

Feb. 26, 2017 Opkomst Ondergang
Werkelijke tijd
Burgerlijke schemering
Nautische schemering
Astronomische schemering
Maan
Golflengte van het zichtbare licht
Daglengte
Tomorrow will be .
, % of the Moon is Illuminated

Extremen vandaag

Country Highs Country Lows

Community

WunderPhotos

Upload Photos

1,962,540 foto’s ge-upload!

WunderBlog® & News

Nearby

Luchtkwaliteit

  Luchtkwaliteit LK-index Verontreinigende stof
Not available.

Dikte sneeuw

Station Depth Geometrische hoogte

Aardbevingen

Stad Distance Mag. Time & Date
Minimum magnitude displayed is 2.5.

Watertemperatuur langs de kust

Plaats Temperatuur

Stations

Nabije weerstations

Locatie station Temp. Gevoelstemperatuur Dauwpunt Vochtigheid Wind Precip. Hoogte Geactualiseerd Type